Airfield :
LOGIN :

Register | Disclaimer

   EN    FR    IT 

 










Legend :    VFR   Marginal VFR   IFR   Intensive IFR   Very Intensive IFR
Visi :
Ceiling :
>= 8 km
>= 3000ft
5 to 8 km
1000 to 3000 ft
1500m to 5 km
500 to 1000 ft
800 to 1500m
200 to 500 ft
< 800m
< 200 ft
Symbols :   Thunderstorms  Fog  Heavy snow  Heavy precipitations  Wind > 20 kt
SIGMETs :     Misc.  Thunderstorms  Icing  Turbulence  Mountain Waves  Volcanic Ashes






- Airport Elevation : 375 ft
- IATA code : MST


EHBK - Maastricht Aachen

CURRENT METAR :
  • 070355Z AUTO 26005KT 230V290 3400 BR OVC002 04/04 Q1017

EXPIRED METARs :
  • 070325Z AUTO 26005KT 230V310 3500 BR OVC002 04/04 Q1018
  • 070255Z AUTO 26006KT 230V300 3700 BR BKN002 OVC003 04/03 Q1017
  • 070225Z AUTO 25006KT 220V290 3900 BR OVC003 04/04 Q1018
  • 070155Z AUTO 27005KT 230V300 4500 BR OVC003 04/04 Q1018
  • 070125Z AUTO 26006KT 220V290 4100 BR OVC002 04/03 Q1018
  • 070055Z AUTO 25007KT 220V280 5000 OVC003 04/03 Q1018

TAF TAF EHBK
Valid from the 07 at 00:00 until the 08 at 06:00 UTC


062320Z 0700/0806 24005KT 7000 BKN006
BECMG 0700/0703 2000 BR BKN003
PROB30
TEMPO 0701/0709 0600 FG DZRA BKN001
BECMG 0709/0712 9999 NSW SCT012
PROB40
TEMPO 0709/0723 6000 -SHRA -DZRA BKN006 FEW015CB
BECMG 0722/0801 2000 BR BKN002



MET'MAP, your aeronautical weather chart ! - Copyright ORBIFLY December 2007 - Disclaimer

ORBIFLY MET'MAP TEAM :

Programming & Development : Alexandra Zaïnal
Original concept : Baudouin d'Aumeries
Technical & hardware support : Manuel Goepfert
Assistance : Marc-Olivier Méhu




SOURCES & CREDITS :

   NOAA